createdAt,value
2019-03-13T00:00:38.474Z,21.75
2019-03-13T00:03:07.714Z,20.53
2019-03-13T00:05:36.527Z,16.30
2019-03-13T00:08:06.575Z,24.90
2019-03-13T00:10:35.175Z,27.20
2019-03-13T00:13:06.113Z,21.92
2019-03-13T00:15:34.959Z,21.23
2019-03-13T00:18:04.055Z,26.07
2019-03-13T00:20:32.934Z,21.57
2019-03-13T00:23:03.167Z,21.45
2019-03-13T00:25:32.047Z,21.60
2019-03-13T00:28:00.799Z,22.70
2019-03-13T00:30:29.619Z,19.83
2019-03-13T00:32:58.716Z,19.77
2019-03-13T00:35:27.623Z,21.57
2019-03-13T00:37:56.315Z,18.62
2019-03-13T00:40:25.186Z,22.17
2019-03-13T00:42:53.766Z,22.10
2019-03-13T00:45:22.347Z,29.37
2019-03-13T00:47:50.922Z,19.60
2019-03-13T00:50:27.798Z,22.63
2019-03-13T00:55:24.246Z,15.70
2019-03-13T00:57:53.138Z,21.07
2019-03-13T01:00:34.299Z,16.45
2019-03-13T01:03:03.204Z,20.17
2019-03-13T01:05:36.501Z,19.95
2019-03-13T01:08:06.613Z,18.12
2019-03-13T01:10:36.215Z,17.23
2019-03-13T01:13:06.038Z,10.04
2019-03-13T01:15:34.924Z,13.50
2019-03-13T01:18:03.821Z,14.77
2019-03-13T01:20:33.008Z,16.90
2019-03-13T01:23:02.101Z,13.27
2019-03-13T01:25:30.986Z,10.77
2019-03-13T01:28:00.839Z,13.20
2019-03-13T01:30:31.229Z,9.30
2019-03-13T01:33:01.972Z,12.75
2019-03-13T01:35:32.839Z,13.43
2019-03-13T01:38:01.989Z,16.40
2019-03-13T01:40:30.874Z,12.57
2019-03-13T01:43:01.118Z,14.18
2019-03-13T01:45:29.570Z,11.95
2019-03-13T01:47:58.791Z,16.65
2019-03-13T01:50:28.374Z,11.75
2019-03-13T01:53:02.317Z,12.05
2019-03-13T01:55:31.191Z,9.57
2019-03-13T01:58:00.913Z,19.62
2019-03-13T02:00:31.184Z,17.05
2019-03-13T02:03:00.080Z,16.37
2019-03-13T02:05:28.989Z,11.85
2019-03-13T02:07:58.898Z,15.60
2019-03-13T02:10:27.895Z,15.67
2019-03-13T02:12:56.786Z,15.07
2019-03-13T02:15:25.663Z,13.37
2019-03-13T02:17:54.555Z,15.93
2019-03-13T02:20:23.444Z,20.48
2019-03-13T02:22:52.335Z,20.20
2019-03-13T02:25:20.962Z,16.33
2019-03-13T02:27:49.814Z,15.77
2019-03-13T02:30:20.826Z,24.92
2019-03-13T02:32:49.629Z,15.43
2019-03-13T02:35:18.212Z,17.07
2019-03-13T02:37:46.828Z,19.80
2019-03-13T02:40:15.691Z,17.07
2019-03-13T02:42:44.703Z,22.57
2019-03-13T02:45:14.408Z,27.85
2019-03-13T02:47:43.484Z,24.95
2019-03-13T02:50:16.876Z,16.70
2019-03-13T02:52:45.687Z,23.30
2019-03-13T02:55:14.454Z,25.30
2019-03-13T02:57:43.331Z,20.77
2019-03-13T03:00:21.285Z,20.70
2019-03-13T03:02:50.860Z,19.13
2019-03-13T03:05:19.732Z,21.57
2019-03-13T03:07:48.626Z,15.57
2019-03-13T03:10:18.453Z,19.73
2019-03-13T03:12:47.647Z,25.12
2019-03-13T03:15:17.136Z,20.90
2019-03-13T03:17:46.027Z,14.40
2019-03-13T03:20:15.800Z,21.33
2019-03-13T03:22:44.408Z,13.95
2019-03-13T03:25:14.227Z,22.45
2019-03-13T03:27:43.113Z,19.80
2019-03-13T03:30:13.129Z,24.00
2019-03-13T03:32:42.335Z,22.62
2019-03-13T03:35:11.112Z,17.53
2019-03-13T03:37:40.948Z,16.37
2019-03-13T03:40:11.347Z,20.87
2019-03-13T03:42:40.235Z,13.90
2019-03-13T03:45:09.642Z,19.90
2019-03-13T03:47:38.526Z,16.57
2019-03-13T03:50:08.852Z,15.20
2019-03-13T03:52:37.874Z,23.30
2019-03-13T03:55:07.769Z,17.10
2019-03-13T03:57:36.659Z,23.43
2019-03-13T04:00:17.090Z,21.83
2019-03-13T04:02:48.105Z,15.27
2019-03-13T04:05:17.090Z,19.07
2019-03-13T04:07:45.817Z,24.63
2019-03-13T04:10:15.298Z,20.90
2019-03-13T04:12:44.214Z,29.60
2019-03-13T04:15:13.634Z,19.07
2019-03-13T04:17:42.950Z,24.80
2019-03-13T04:20:13.057Z,21.80
2019-03-13T04:22:42.054Z,23.70
2019-03-13T04:25:15.311Z,36.38
2019-03-13T04:27:44.429Z,34.67
2019-03-13T04:30:13.314Z,28.57
2019-03-13T04:32:42.297Z,21.27
2019-03-13T04:35:11.382Z,23.67
2019-03-13T04:37:40.313Z,23.27
2019-03-13T04:40:10.291Z,24.77
2019-03-13T04:42:39.189Z,30.93
2019-03-13T04:45:09.820Z,29.05
2019-03-13T04:47:38.696Z,26.53
2019-03-13T04:50:11.286Z,27.80
2019-03-13T04:52:40.161Z,33.47
2019-03-13T04:55:10.201Z,32.60
2019-03-13T04:57:39.064Z,26.47
2019-03-13T05:00:10.208Z,26.30
2019-03-13T05:02:39.320Z,33.40
2019-03-13T05:05:10.242Z,39.60
2019-03-13T05:07:39.126Z,35.77
2019-03-13T05:10:09.346Z,36.83
2019-03-13T05:12:38.234Z,33.47
2019-03-13T05:15:06.816Z,28.43
2019-03-13T05:17:35.705Z,29.10
2019-03-13T05:20:06.587Z,34.56
2019-03-13T05:22:35.225Z,30.95
2019-03-13T05:25:05.138Z,33.27
2019-03-13T05:27:34.027Z,27.33
2019-03-13T05:30:02.812Z,26.35
2019-03-13T05:32:32.953Z,26.70
2019-03-13T05:35:03.459Z,32.60
2019-03-13T05:37:32.352Z,25.07
2019-03-13T05:40:00.926Z,25.27
2019-03-13T05:42:30.557Z,18.77
2019-03-13T05:44:59.124Z,19.15
2019-03-13T05:47:29.360Z,23.25
2019-03-13T05:49:58.228Z,32.88
2019-03-13T05:52:27.121Z,35.43
2019-03-13T05:54:56.010Z,23.67
2019-03-13T05:57:25.211Z,26.33
2019-03-13T05:59:54.399Z,18.85
2019-03-13T06:02:23.282Z,28.83
2019-03-13T06:04:52.180Z,31.93
2019-03-13T06:07:20.760Z,28.03
2019-03-13T06:09:49.875Z,23.67
2019-03-13T06:12:18.761Z,28.10
2019-03-13T06:14:47.769Z,32.55
2019-03-13T06:17:19.175Z,34.73
2019-03-13T06:19:48.196Z,29.43
2019-03-13T06:22:16.990Z,34.50
2019-03-13T06:24:45.870Z,30.80
2019-03-13T06:27:14.743Z,30.57
2019-03-13T06:29:43.635Z,27.37
2019-03-13T06:32:12.211Z,31.40
2019-03-13T06:34:41.103Z,33.47
2019-03-13T06:37:09.990Z,41.88
2019-03-13T06:39:38.877Z,37.57
2019-03-13T06:42:08.188Z,25.80
2019-03-13T06:44:37.376Z,32.75
2019-03-13T06:47:06.134Z,29.40
2019-03-13T06:49:35.047Z,22.87
2019-03-13T06:52:03.858Z,33.83
2019-03-13T06:57:12.367Z,25.10
2019-03-13T06:59:55.487Z,30.23
2019-03-13T07:02:25.913Z,30.08
2019-03-13T07:04:59.415Z,31.10
2019-03-13T07:07:29.939Z,32.90
2019-03-13T07:10:00.494Z,22.97
2019-03-13T07:12:31.817Z,22.10
2019-03-13T07:15:05.255Z,23.90
2019-03-13T07:17:53.963Z,36.07
2019-03-13T07:20:27.055Z,29.40
2019-03-13T07:22:57.175Z,36.05
2019-03-13T07:25:46.022Z,39.38
2019-03-13T07:28:16.887Z,31.52
2019-03-13T07:30:47.589Z,34.23
2019-03-13T07:33:24.059Z,32.83
2019-03-13T07:35:54.586Z,33.63
2019-03-13T07:38:27.475Z,36.20
2019-03-13T07:41:14.787Z,32.08
2019-03-13T07:43:54.021Z,28.67
2019-03-13T07:46:41.365Z,27.20
2019-03-13T07:49:26.928Z,29.30
2019-03-13T07:51:57.452Z,35.17
2019-03-13T07:54:30.766Z,29.70
2019-03-13T07:57:04.554Z,34.07
2019-03-13T07:59:53.403Z,41.17
2019-03-13T08:02:40.011Z,35.65
2019-03-13T08:05:27.438Z,39.70
2019-03-13T08:08:14.244Z,30.07
2019-03-13T08:10:50.788Z,46.45
2019-03-13T08:13:37.529Z,43.55
2019-03-13T08:16:26.684Z,34.30
2019-03-13T08:18:59.730Z,40.98
2019-03-13T08:21:29.986Z,42.83
2019-03-13T08:24:03.287Z,47.38
2019-03-13T08:26:33.840Z,36.47
2019-03-13T08:29:07.452Z,39.70
2019-03-13T08:31:38.065Z,43.17
2019-03-13T08:34:08.260Z,41.98
2019-03-13T08:36:47.307Z,38.40
2019-03-13T08:39:17.511Z,40.13
2019-03-13T08:42:00.012Z,39.47
2019-03-13T08:44:30.850Z,40.87
2019-03-13T08:47:01.999Z,46.47
2019-03-13T08:49:50.764Z,51.68
2019-03-13T08:52:37.559Z,47.77
2019-03-13T08:55:26.308Z,41.18
2019-03-13T08:57:56.740Z,44.80
2019-03-13T09:00:29.057Z,51.03
2019-03-13T09:03:13.479Z,42.98
2019-03-13T09:05:43.880Z,40.90
2019-03-13T09:08:14.125Z,43.50
2019-03-13T09:10:56.610Z,37.43
2019-03-13T09:13:39.044Z,34.63
2019-03-13T09:16:21.535Z,37.65
2019-03-13T09:18:57.684Z,41.27
2019-03-13T09:21:28.118Z,48.20
2019-03-13T09:24:07.765Z,30.67
2019-03-13T09:26:45.344Z,43.05
2019-03-13T09:29:28.077Z,31.27
2019-03-13T09:31:58.585Z,46.73
2019-03-13T09:34:29.237Z,32.83
2019-03-13T09:37:02.522Z,34.75
2019-03-13T09:39:36.004Z,30.93
2019-03-13T09:42:16.904Z,41.10
2019-03-13T09:45:04.194Z,33.08
2019-03-13T09:50:10.594Z,48.08
2019-03-13T09:52:43.765Z,31.87
2019-03-13T09:55:20.229Z,33.43
2019-03-13T09:57:56.659Z,33.38
2019-03-13T10:00:30.095Z,34.23
2019-03-13T10:03:16.600Z,37.40
2019-03-13T10:05:47.023Z,27.62
2019-03-13T10:08:20.112Z,28.47
2019-03-13T10:10:53.094Z,29.50
2019-03-13T10:13:35.724Z,23.17
2019-03-13T10:16:16.468Z,32.40
2019-03-13T10:18:52.424Z,26.05
2019-03-13T10:21:23.079Z,32.35
2019-03-13T10:24:06.102Z,24.23
2019-03-13T10:26:46.330Z,35.17
2019-03-13T10:29:17.014Z,24.43
2019-03-13T10:31:56.703Z,26.30
2019-03-13T10:34:42.084Z,19.13
2019-03-13T10:37:28.804Z,19.30
2019-03-13T10:39:59.216Z,30.95
2019-03-13T10:42:47.864Z,18.65
2019-03-13T10:45:18.013Z,26.73
2019-03-13T10:48:00.818Z,33.58
2019-03-13T10:50:34.608Z,29.07
2019-03-13T10:53:16.932Z,25.80
2019-03-13T10:56:03.611Z,28.30
2019-03-13T10:58:49.918Z,24.55
2019-03-13T11:01:20.240Z,15.53
2019-03-13T11:03:53.623Z,19.65
2019-03-13T11:06:40.331Z,32.70
2019-03-13T11:09:23.166Z,26.77
2019-03-13T11:12:08.732Z,22.65
2019-03-13T11:14:54.206Z,24.10
2019-03-13T11:17:40.423Z,31.53
2019-03-13T11:20:27.543Z,27.77
2019-03-13T11:23:01.668Z,24.37
2019-03-13T11:25:48.550Z,30.15
2019-03-13T11:28:28.203Z,26.12
2019-03-13T11:31:07.230Z,28.12
2019-03-13T11:33:43.366Z,19.07
2019-03-13T11:39:04.187Z,25.40
2019-03-13T11:41:51.203Z,28.38
2019-03-13T11:44:21.327Z,26.93
2019-03-13T11:46:57.892Z,23.70
2019-03-13T11:49:44.495Z,22.37
2019-03-13T11:52:26.902Z,25.07
2019-03-13T11:54:57.128Z,21.87
2019-03-13T11:57:36.436Z,32.77
2019-03-13T12:00:18.080Z,28.18
2019-03-13T12:02:48.776Z,26.85
2019-03-13T12:05:19.426Z,28.57
2019-03-13T12:07:50.135Z,25.17
2019-03-13T12:10:20.971Z,22.13
2019-03-13T12:13:00.354Z,21.07
2019-03-13T12:15:33.920Z,21.00
2019-03-13T12:18:22.253Z,26.43
2019-03-13T12:21:04.170Z,22.33
2019-03-13T12:23:40.312Z,21.07
2019-03-13T12:26:13.475Z,25.00
2019-03-13T12:28:49.349Z,26.37
2019-03-13T12:31:31.751Z,27.37
2019-03-13T12:34:10.883Z,25.88
2019-03-13T12:36:43.967Z,20.52
2019-03-13T12:39:16.855Z,33.43
2019-03-13T12:41:52.930Z,31.35
2019-03-13T12:44:29.072Z,26.42
2019-03-13T12:47:14.754Z,29.25
2019-03-13T12:49:51.214Z,27.82
2019-03-13T12:52:34.029Z,29.80
2019-03-13T12:55:07.734Z,29.13
2019-03-13T12:57:41.220Z,34.17
2019-03-13T13:00:31.184Z,25.95
2019-03-13T13:03:16.897Z,16.95
2019-03-13T13:05:53.363Z,24.20
2019-03-13T13:08:32.699Z,31.03
2019-03-13T13:11:14.905Z,29.75
2019-03-13T13:13:54.026Z,18.75
2019-03-13T13:16:27.139Z,22.10
2019-03-13T13:18:56.318Z,17.87
2019-03-13T13:21:25.202Z,23.97
2019-03-13T13:23:53.806Z,24.60
2019-03-13T13:26:22.879Z,20.92
2019-03-13T13:28:51.783Z,18.47
2019-03-13T13:31:21.493Z,31.60
2019-03-13T13:33:50.677Z,28.25
2019-03-13T13:36:21.336Z,22.43
2019-03-13T13:38:51.119Z,24.40
2019-03-13T13:41:36.978Z,26.07
2019-03-13T13:44:10.294Z,28.38
2019-03-13T13:46:38.980Z,28.02
2019-03-13T13:49:07.778Z,23.73
2019-03-13T13:51:36.664Z,26.77
2019-03-13T13:54:07.210Z,24.22
2019-03-13T13:56:36.070Z,28.00
2019-03-13T13:59:06.299Z,29.80
2019-03-13T14:01:35.385Z,29.07
2019-03-13T14:04:04.399Z,22.87
2019-03-13T14:06:33.083Z,32.40
2019-03-13T14:09:03.408Z,25.92
2019-03-13T14:11:33.827Z,30.17
2019-03-13T14:14:04.234Z,28.73
2019-03-13T14:16:33.127Z,25.77
2019-03-13T14:19:03.780Z,31.97
2019-03-13T14:21:33.214Z,30.05
2019-03-13T14:24:02.660Z,32.53
2019-03-13T14:26:31.877Z,38.15
2019-03-13T14:29:02.386Z,27.32
2019-03-13T14:31:31.602Z,33.30
2019-03-13T14:34:00.738Z,32.65
2019-03-13T14:36:29.869Z,26.42
2019-03-13T14:38:58.452Z,31.48
2019-03-13T14:41:27.231Z,23.70
2019-03-13T14:43:55.843Z,20.15
2019-03-13T14:46:24.398Z,38.40
2019-03-13T14:48:56.873Z,28.52
2019-03-13T14:51:25.656Z,34.00
2019-03-13T14:53:55.366Z,27.60
2019-03-13T14:56:24.488Z,23.50
2019-03-13T14:58:53.352Z,27.57
2019-03-13T15:01:22.248Z,28.62
2019-03-13T15:03:51.023Z,27.77
2019-03-13T15:06:19.920Z,24.15
2019-03-13T15:08:49.137Z,24.20
2019-03-13T15:11:17.694Z,30.20
2019-03-13T15:13:46.788Z,22.77
2019-03-13T15:16:15.375Z,30.10
2019-03-13T15:18:44.159Z,25.43
2019-03-13T15:21:12.744Z,29.13
2019-03-13T15:23:41.324Z,25.02
2019-03-13T15:26:10.144Z,25.70
2019-03-13T15:28:38.900Z,27.05
2019-03-13T15:31:07.789Z,26.12
2019-03-13T15:33:36.886Z,27.73
2019-03-13T15:36:06.074Z,23.57
2019-03-13T15:38:34.863Z,22.05
2019-03-13T15:41:03.474Z,30.32
2019-03-13T15:43:32.029Z,29.25
2019-03-13T15:46:00.807Z,30.90
2019-03-13T15:48:30.216Z,24.02
2019-03-13T15:50:59.000Z,28.50
2019-03-13T15:53:28.096Z,25.82
2019-03-13T15:55:57.295Z,27.37
2019-03-13T15:58:26.489Z,29.75
2019-03-13T16:00:56.094Z,19.87
2019-03-13T16:03:24.681Z,31.65
2019-03-13T16:05:53.574Z,30.80
2019-03-13T16:08:22.194Z,30.07
2019-03-13T16:10:51.035Z,27.77
2019-03-13T16:13:19.625Z,22.53
2019-03-13T16:15:48.198Z,27.22
2019-03-13T16:18:16.804Z,21.70
2019-03-13T16:20:45.364Z,26.30
2019-03-13T16:23:20.801Z,26.77
2019-03-13T16:25:49.906Z,22.83
2019-03-13T16:28:18.609Z,25.27
2019-03-13T16:30:51.814Z,28.70
2019-03-13T16:33:20.942Z,25.05
2019-03-13T16:35:49.908Z,27.27
2019-03-13T16:38:18.772Z,25.37
2019-03-13T16:40:47.844Z,19.42
2019-03-13T16:43:16.431Z,28.83
2019-03-13T16:45:45.731Z,24.75
2019-03-13T16:48:14.331Z,29.20
2019-03-13T16:50:44.217Z,26.55
2019-03-13T16:53:12.807Z,28.20
2019-03-13T16:55:41.412Z,24.47
2019-03-13T16:58:10.075Z,33.02
2019-03-13T17:00:38.755Z,31.05
2019-03-13T17:03:07.767Z,37.80
2019-03-13T17:05:36.327Z,33.40
2019-03-13T17:08:06.352Z,31.53
2019-03-13T17:10:34.961Z,29.00
2019-03-13T17:13:05.458Z,20.88
2019-03-13T17:15:34.773Z,28.60
2019-03-13T17:18:04.620Z,26.87
2019-03-13T17:20:35.394Z,28.50
2019-03-13T17:23:05.312Z,27.15
2019-03-13T17:25:34.606Z,24.37
2019-03-13T17:28:03.495Z,31.67
2019-03-13T17:30:32.913Z,29.15
2019-03-13T17:33:02.099Z,33.33
2019-03-13T17:35:31.486Z,24.00
2019-03-13T17:38:00.384Z,36.70
2019-03-13T17:40:30.935Z,21.48
2019-03-13T17:43:01.315Z,27.52
2019-03-13T17:45:31.885Z,27.30
2019-03-13T17:48:00.918Z,32.37
2019-03-13T17:50:30.360Z,28.75
2019-03-13T17:52:59.696Z,40.52
2019-03-13T17:55:29.085Z,30.90
2019-03-13T17:57:59.947Z,30.10
2019-03-13T18:00:34.429Z,26.33
2019-03-13T18:03:06.813Z,20.46
2019-03-13T18:05:36.417Z,28.25
2019-03-13T18:08:07.152Z,31.02
2019-03-13T18:10:35.708Z,33.85
2019-03-13T18:13:04.403Z,31.30
2019-03-13T18:15:33.592Z,29.20
2019-03-13T18:18:02.648Z,33.63
2019-03-13T18:20:31.683Z,32.30
2019-03-13T18:23:00.218Z,22.30
2019-03-13T18:25:31.327Z,24.45
2019-03-13T18:28:02.716Z,31.37
2019-03-13T18:30:32.784Z,22.40
2019-03-13T18:33:18.155Z,27.98
2019-03-13T18:35:50.427Z,27.07
2019-03-13T18:38:22.862Z,21.73
2019-03-13T18:40:51.396Z,20.77
2019-03-13T18:43:23.518Z,19.70
2019-03-13T18:46:11.197Z,15.83
2019-03-13T18:48:40.676Z,24.20
2019-03-13T18:51:18.016Z,20.27
2019-03-13T18:54:06.561Z,21.25
2019-03-13T18:56:31.971Z,25.23
2019-03-13T18:59:00.755Z,22.52
2019-03-13T19:01:29.853Z,27.22
2019-03-13T19:04:00.342Z,57.40
2019-03-13T19:06:29.253Z,27.47
2019-03-13T19:08:58.007Z,29.23
2019-03-13T19:11:26.572Z,24.35
2019-03-13T19:13:58.237Z,28.80
2019-03-13T19:16:37.343Z,19.67
2019-03-13T19:19:16.883Z,27.20
2019-03-13T19:21:50.990Z,23.57
2019-03-13T19:24:19.767Z,17.82
2019-03-13T19:26:48.564Z,13.13
2019-03-13T19:29:17.040Z,18.57
2019-03-13T19:31:45.682Z,21.87
2019-03-13T19:34:19.993Z,16.40
2019-03-13T19:36:51.168Z,22.90
2019-03-13T19:39:27.965Z,14.50
2019-03-13T19:42:06.824Z,15.07
2019-03-13T19:44:41.433Z,13.60
2019-03-13T19:47:10.204Z,17.60
2019-03-13T19:49:53.403Z,21.80
2019-03-13T19:55:14.237Z,19.13
2019-03-13T19:57:49.088Z,14.20
2019-03-13T20:00:24.607Z,20.60
2019-03-13T20:03:00.378Z,13.70
2019-03-13T20:05:28.707Z,19.55
2019-03-13T20:07:57.188Z,24.70
2019-03-13T20:10:26.580Z,25.07
2019-03-13T20:13:08.253Z,24.00
2019-03-13T20:15:55.069Z,28.23
2019-03-13T20:18:28.575Z,27.42
2019-03-13T20:21:01.593Z,23.20
2019-03-13T20:23:43.532Z,24.55
2019-03-13T20:26:34.839Z,28.50
2019-03-13T20:29:03.827Z,24.72
2019-03-13T20:31:34.226Z,31.05
2019-03-13T20:34:12.282Z,34.38
2019-03-13T20:36:42.585Z,26.60
2019-03-13T20:39:14.022Z,36.03
2019-03-13T20:41:45.890Z,34.93
2019-03-13T20:44:19.354Z,37.83
2019-03-13T20:47:07.475Z,32.85
2019-03-13T20:49:37.873Z,29.57
2019-03-13T20:52:06.721Z,28.17
2019-03-13T20:54:35.511Z,33.53
2019-03-13T20:57:05.855Z,24.84
2019-03-13T20:59:34.415Z,32.85
2019-03-13T21:02:04.955Z,32.80
2019-03-13T21:04:33.814Z,26.07
2019-03-13T21:07:02.615Z,28.20
2019-03-13T21:09:31.499Z,35.67
2019-03-13T21:12:00.307Z,34.83
2019-03-13T21:14:28.967Z,22.75
2019-03-13T21:16:58.167Z,28.73
2019-03-13T21:19:27.059Z,29.43
2019-03-13T21:21:55.839Z,27.42
2019-03-13T21:24:24.326Z,40.73
2019-03-13T21:26:53.104Z,28.67
2019-03-13T21:29:21.999Z,33.05
2019-03-13T21:31:50.884Z,30.33
2019-03-13T21:34:19.468Z,35.03
2019-03-13T21:36:49.387Z,37.10
2019-03-13T21:39:18.196Z,42.30
2019-03-13T21:41:49.943Z,44.50
2019-03-13T21:44:17.774Z,44.55
2019-03-13T21:46:46.796Z,32.43
2019-03-13T21:49:15.596Z,39.63
2019-03-13T21:51:44.662Z,40.43
2019-03-13T21:54:13.258Z,34.70
2019-03-13T21:56:42.129Z,36.60
2019-03-13T21:59:10.983Z,27.40
2019-03-13T22:01:39.910Z,35.75
2019-03-13T22:04:08.620Z,38.17
2019-03-13T22:06:37.616Z,36.73
2019-03-13T22:09:06.578Z,36.35
2019-03-13T22:11:35.992Z,33.23
2019-03-13T22:14:06.639Z,33.08
2019-03-13T22:16:35.299Z,38.70
2019-03-13T22:19:04.926Z,31.33
2019-03-13T22:21:33.494Z,37.90
2019-03-13T22:24:05.236Z,41.87
2019-03-13T22:26:34.147Z,35.08
2019-03-13T22:29:03.391Z,38.38
2019-03-13T22:31:32.196Z,41.17
2019-03-13T22:34:03.105Z,41.73
2019-03-13T22:36:31.938Z,35.10
2019-03-13T22:39:00.953Z,37.23
2019-03-13T22:41:31.782Z,34.55
2019-03-13T22:44:00.575Z,47.75
2019-03-13T22:46:31.284Z,33.75
2019-03-13T22:49:00.178Z,34.17
2019-03-13T22:51:30.290Z,41.37
2019-03-13T22:53:59.384Z,42.30
2019-03-13T22:56:28.183Z,35.43
2019-03-13T22:58:56.961Z,41.08
2019-03-13T23:01:25.850Z,40.73
2019-03-13T23:03:55.659Z,42.10
2019-03-13T23:06:24.468Z,40.60
2019-03-13T23:08:53.441Z,55.80
2019-03-13T23:11:22.564Z,34.17
2019-03-13T23:13:51.342Z,38.20
2019-03-13T23:16:20.127Z,38.07
2019-03-13T23:18:48.994Z,36.10
2019-03-13T23:21:17.590Z,43.87
2019-03-13T23:23:46.798Z,45.00
2019-03-13T23:26:16.379Z,29.53
2019-03-13T23:28:45.271Z,45.27
2019-03-13T23:31:14.372Z,43.63
2019-03-13T23:33:43.153Z,33.58
2019-03-13T23:36:11.738Z,35.40
2019-03-13T23:38:40.619Z,35.70
2019-03-13T23:41:09.406Z,38.33
2019-03-13T23:43:38.194Z,49.80
2019-03-13T23:46:06.775Z,34.23
2019-03-13T23:48:35.663Z,35.23
2019-03-13T23:51:05.883Z,37.93
2019-03-13T23:53:35.613Z,33.95
2019-03-13T23:56:05.707Z,40.00
2019-03-13T23:58:34.290Z,44.20
